• Join FlightAware (Why Join?)
  • Login
  • US Flag 
03:59PM EST


 

Airport Tracker/Info


-or-


 

Live Flight TrackerFlight Track Log ✈ AAL371 ✈ 21-Jul-2013 ✈ KLGA - KORD

Flight Track Log - Related Links

Times and Time Zones

All times are in EDT time to prevent confusion due to time zone crossing. See the AAL371 flight status page for this flight to view local times or setup timezone preferences in your user account.

Time Position Orientation Groundspeed Altitude Reporting Facility
EDT Latitude Longitude Course Direction KTS MPH feet Rate Location/Type
09:14PM 40.7667 -73.7833 299° West 195 224 2,800  Level New York TRACON
09:15PM 40.8167 -73.7500 27° Northeast 239 275 4,500 1,500 Climbing New York TRACON
09:16PM 40.9119 -74.1902 304° West  Level FlightAware Approximate
09:16PM 40.8833 -73.7500 360° North 279 321 5,700  Level New York TRACON
09:17PM 40.9671 -74.3007 304° West  Level FlightAware Approximate
09:17PM 40.9333 -73.8333 308° West 276 318 7,300  Level New York TRACON
09:18PM 41.0175 -74.4151 299° West  Level FlightAware Approximate
09:19PM 41.0658 -74.5312 299° West  Level FlightAware Approximate
09:19PM 41.0378 -74.0200 307° West 289 333 11,800  Level New York Center
09:20PM 41.0567 -74.1583 280° West 341 392 13,900 1,920 Climbing New York Center
09:21PM 41.0781 -74.2833 283° West 372 428 15,600 1,020 Climbing New York Center
09:22PM 41.0986 -74.4275 281° West 372 428 16,000 180 Climbing New York Center
09:23PM 41.1158 -74.5469 281° West 367 422 16,000  Level New York Center
09:24PM 41.1383 -74.6886 282° West 367 422 16,000  Level New York Center
09:25PM 41.1825 -74.7958 299° West 367 422 16,000  Level New York Center
09:26PM 41.2383 -74.9289 299° West 373 429 16,000  Level New York Center
09:27PM 41.2883 -75.0453 300° West 378 435 16,000  Level New York Center
09:28PM 41.3403 -75.1644 300° West 373 429 16,100 900 Climbing New York Center
09:29PM 41.3861 -75.2725 300° West 373 429 17,800 1,740 Climbing New York Center
09:30PM 41.4319 -75.3808 299° West 373 429 19,700 2,280 Climbing New York Center
09:31PM 41.4883 -75.5342 296° West 378 435 22,400 1,860 Climbing New York Center
09:32PM 41.5253 -75.6533 293° West 378 435 23,400 1,500 Climbing New York Center
09:33PM 41.5689 -75.8061 291° West 396 456 25,400 1,680 Climbing New York Center
09:34PM 41.6086 -75.9450 291° West 401 461 26,900 1,440 Climbing New York Center
09:35PM 41.6503 -76.0872 291° West 406 467 28,400 1,440 Climbing New York Center
09:36PM 41.6897 -76.2292 290° West 406 467 29,900 1,260 Climbing New York Center
09:38PM 41.7525 -76.4578 290° West 413 475 31,800 780 Climbing Cleveland Center
09:39PM 41.7886 -76.5919 290° West 398 458 32,000 60 Climbing Cleveland Center
09:40PM 41.8267 -76.7344 290° West 398 458 32,000 -60 Level Cleveland Center
09:41PM 41.8644 -76.8689 291° West 398 458 31,900 60 Descending Cleveland Center
09:42PM 41.9022 -77.0036 291° West 398 458 32,200 600 Climbing Cleveland Center
09:43PM 41.9378 -77.1411 289° West 398 458 33,100 660 Climbing Cleveland Center
09:44PM 41.9750 -77.2761 290° West 398 458 33,600 360 Climbing Cleveland Center
09:45PM 42.0031 -77.3836 289° West 393 452 33,900 180 Climbing Cleveland Center
09:46PM 42.0425 -77.5297 290° West 388 447 34,000  Climbing Cleveland Center
09:47PM 42.0772 -77.6653 289° West 388 447 34,000  Level Cleveland Center
09:48PM 42.1161 -77.8006 291° West 383 441 34,000 -60 Level Cleveland Center
09:49PM 42.1506 -77.9364 289° West 383 441 33,900 -60 Descending Cleveland Center
09:50PM 42.1847 -78.0722 289° West 383 441 33,900  Level Cleveland Center
09:51PM 42.2211 -78.2083 290° West 383 441 34,000  Climbing Cleveland Center
09:52PM 42.2572 -78.3444 290° West 383 441 34,000  Level Cleveland Center
09:53PM 42.2931 -78.4836 289° West 383 441 34,000  Level Cleveland Center
09:54PM 42.3267 -78.6200 288° West 383 441 34,100  Climbing Cleveland Center
09:55PM 42.3625 -78.7567 290° West 383 441 34,000 -120 Descending Cleveland Center
09:56PM 42.3981 -78.9075 288° West 383 441 33,900 -60 Descending Cleveland Center
09:57PM 42.4333 -79.0444 289° West 383 441 33,900  Level Cleveland Center
09:58PM 42.4661 -79.1675 290° West 383 441 34,000  Climbing Cleveland Center
09:59PM 42.4947 -79.3075 286° West 383 441 34,000  Level Cleveland Center
10:00PM 42.4983 -79.4511 272° West 383 441 34,100  Climbing Cleveland Center
10:01PM 42.5081 -79.5947 275° West 383 441 34,000 -60 Descending Cleveland Center
10:02PM 42.5156 -79.7381 274° West 383 441 34,000 -60 Level Cleveland Center
10:03PM 42.5228 -79.8789 274° West 383 441 33,900  Descending Cleveland Center
10:04PM 42.5256 -80.0367 271° West 383 441 34,000  Climbing Cleveland Center
10:05PM 42.5325 -80.1803 274° West 383 441 34,000  Level Cleveland Center
10:06PM 42.5369 -80.3183 273° West 383 441 34,000  Level Cleveland Center
10:07PM 42.5436 -80.4619 274° West 388 447 34,000  Level Cleveland Center
10:08PM 42.5497 -80.6000 273° West 381 438 34,000  Level Cleveland Center
10:09PM 42.5558 -80.7439 273° West 386 444 34,000  Level Cleveland Center
10:10PM 42.5597 -80.8847 272° West 380 437 34,000  Level Cleveland Center
10:11PM 42.5656 -81.0258 273° West 380 437 34,000  Level Cleveland Center
10:12PM 42.5692 -81.1611 272° West 375 432 34,000 -60 Level Cleveland Center
10:13PM 42.5747 -81.3050 273° West 375 432 33,900 -60 Descending Cleveland Center
10:14PM 42.5819 -81.4461 274° West 380 437 33,900  Level Cleveland Center
10:15PM 42.6039 -81.5733 283° West 380 437 33,900  Level Cleveland Center
10:16PM 42.6278 -81.7092 283° West 380 437 34,000 60 Climbing Cleveland Center
10:17PM 42.6553 -81.8678 283° West 387 445 34,100  Climbing Cleveland Center
10:18PM 42.6806 -82.0122 283° West 393 452 34,100  Level Cleveland Center
10:19PM 42.6975 -82.1567 279° West 393 452 34,100 -60 Level Cleveland Center
10:20PM 42.7078 -82.3011 276° West 393 452 34,000 -60 Descending Cleveland Center
10:21PM 42.7203 -82.4456 277° West 387 445 34,000 -60 Level Cleveland Center
10:22PM 42.7325 -82.5900 277° West 387 445 33,900 -60 Descending Cleveland Center
10:23PM 42.7444 -82.7347 276° West 387 445 33,900  Level Cleveland Center
10:24PM 42.7581 -82.8850 277° West 392 451 34,000 60 Climbing Cleveland Center
10:25PM 42.7697 -83.0297 276° West 392 451 34,100  Climbing Cleveland Center
10:26PM 42.7811 -83.1744 276° West 387 445 34,000 -120 Descending Cleveland Center
10:27PM 42.7925 -83.3192 276° West 387 445 33,900  Descending Cleveland Center
10:28PM 42.8036 -83.4642 276° West 392 451 34,000 -300 Climbing Cleveland Center
10:29PM 42.8144 -83.6117 276° West 387 445 33,400 -780 Descending Cleveland Center
10:30PM 42.8253 -83.7453 276° West 398 458 32,500 -720 Descending Cleveland Center
10:31PM 42.8336 -83.8931 274° West 398 458 32,000 -300 Descending Cleveland Center
10:32PM 42.8458 -84.0439 276° West 403 464 32,000  Level Cleveland Center
10:33PM 42.8639 -84.2922 276° West 396 456 32,000  Level Chicago Center
10:34PM 42.8753 -84.4425 276° West 399 459 32,000 -60 Level Chicago Center
10:35PM 42.8839 -84.5911 275° West 396 456 31,900  Descending Chicago Center
10:36PM 42.8681 -84.7414 262° West 403 464 32,000 60 Climbing Chicago Center
10:37PM 42.8519 -84.8894 262° West 398 458 32,100  Climbing Chicago Center
10:38PM 42.8336 -85.0681 262° West 397 457 32,100 -60 Level Chicago Center
10:39PM 42.8383 -85.2167 273° West 398 458 32,000 -60 Descending Chicago Center
10:40PM 42.8447 -85.3667 273° West 397 457 32,000 -60 Level Chicago Center
10:42PM 42.8525 -85.5156 274° West 394 453 31,900  Descending Chicago Center
10:43PM 42.8589 -85.6678 273° West 400 460 32,000  Climbing Chicago Center
10:44PM 42.8667 -85.8217 274° West 404 465 31,900 -300 Descending Chicago Center
10:45PM 42.8608 -85.9761 267° West 403 464 31,400 -840 Descending Chicago Center
10:46PM 42.8394 -86.1247 259° West 393 452 30,200 -1,860 Descending Chicago Center
10:47PM 42.8019 -86.2642 250° West 392 451 27,600 -2,880 Descending Chicago Center
10:48PM 42.7469 -86.3964 241° Southwest 406 467 24,400 -2,940 Descending Chicago Center
10:49PM 42.6936 -86.5292 241° Southwest 403 464 21,700 -2,880 Descending Chicago Center
10:50PM 42.6297 -86.6850 241° Southwest 396 456 18,600 -2,640 Descending Chicago Center
10:51PM 42.5786 -86.8094 241° Southwest 383 441 16,400 -2,280 Descending Chicago Center
10:52PM 42.5325 -86.9289 242° Southwest 363 418 14,000 -2,220 Descending Chicago Center
10:53PM 42.4831 -87.0417 239° Southwest 352 405 12,000 -1,860 Descending Chicago Center
10:54PM 42.4422 -87.1558 244° Southwest 339 390 10,300 -1,020 Descending Chicago Center
10:55PM 42.4103 -87.2744 250° West 336 387 10,000 -180 Descending Chicago Center
10:56PM 42.3778 -87.3964 250° West 334 384 10,000  Level Chicago Center
10:57PM 42.3261 -87.4997 236° Southwest 351 404 10,000  Level Chicago Center
10:58PM 42.2558 -87.5828 221° Southwest 340 391 10,000  Level Chicago Center
10:59PM 42.1886 -87.6700 224° Southwest 338 389 10,000  Level Chicago Center
11:00PM 42.1131 -87.7703 225° Southwest 324 373 10,000 -840 Level Chicago Center
11:01PM 42.0853 -87.8639 248° West 279 321 8,400 -1,380 Descending Chicago Center
11:02PM 42.0575 -87.9603 249° West 277 319 7,200 -1,020 Descending Chicago Center
11:02PM 42.0500 -88.0167 260° West 257 296 6,900 -1,080 Descending Chicago TRACON
11:03PM 42.0500 -88.0833 270° West 225 259 5,700 -1,380 Descending Chicago TRACON
11:04PM 42.0561 -88.1375 279° West 228 262 4,800 -1,440 Descending Chicago Center